sensor_id;sensor_type;location;lat;lon;timestamp;P1;durP1;ratioP1;P2;durP2;ratioP2
60014;SDS011;45867;52.480;6.056;2023-04-03T00:00:49;4.90;;;1.90;;
60014;SDS011;45867;52.480;6.056;2023-04-03T00:03:16;4.20;;;2.00;;
60014;SDS011;45867;52.480;6.056;2023-04-03T00:05:43;6.43;;;2.20;;
60014;SDS011;45867;52.480;6.056;2023-04-03T00:08:08;3.60;;;1.77;;
60014;SDS011;45867;52.480;6.056;2023-04-03T00:10:35;6.35;;;2.28;;
60014;SDS011;45867;52.480;6.056;2023-04-03T00:13:02;7.25;;;2.17;;
60014;SDS011;45867;52.480;6.056;2023-04-03T00:15:31;3.67;;;2.17;;
60014;SDS011;45867;52.480;6.056;2023-04-03T00:17:56;6.03;;;1.88;;
60014;SDS011;45867;52.480;6.056;2023-04-03T00:20:22;4.75;;;2.20;;
60014;SDS011;45867;52.480;6.056;2023-04-03T00:22:47;3.67;;;2.00;;
60014;SDS011;45867;52.480;6.056;2023-04-03T00:25:12;7.00;;;2.25;;
60014;SDS011;45867;52.480;6.056;2023-04-03T00:27:38;6.35;;;2.15;;
60014;SDS011;45867;52.480;6.056;2023-04-03T00:30:05;5.60;;;2.20;;
60014;SDS011;45867;52.480;6.056;2023-04-03T00:32:51;2.92;;;1.80;;
60014;SDS011;45867;52.480;6.056;2023-04-03T00:35:17;5.30;;;2.25;;
60014;SDS011;45867;52.480;6.056;2023-04-03T00:37:44;5.97;;;2.10;;
60014;SDS011;45867;52.480;6.056;2023-04-03T00:40:10;4.35;;;2.03;;
60014;SDS011;45867;52.480;6.056;2023-04-03T00:42:39;3.38;;;1.80;;
60014;SDS011;45867;52.480;6.056;2023-04-03T00:47:31;6.15;;;2.25;;
60014;SDS011;45867;52.480;6.056;2023-04-03T00:49:57;6.00;;;2.17;;
60014;SDS011;45867;52.480;6.056;2023-04-03T00:52:23;5.50;;;2.10;;
60014;SDS011;45867;52.480;6.056;2023-04-03T00:54:53;6.20;;;2.30;;
60014;SDS011;45867;52.480;6.056;2023-04-03T00:57:22;5.30;;;2.17;;
60014;SDS011;45867;52.480;6.056;2023-04-03T00:59:53;8.55;;;2.78;;
60014;SDS011;45867;52.480;6.056;2023-04-03T01:02:26;9.10;;;1.95;;
60014;SDS011;45867;52.480;6.056;2023-04-03T01:04:51;8.07;;;2.58;;
60014;SDS011;45867;52.480;6.056;2023-04-03T01:07:21;5.13;;;2.40;;
60014;SDS011;45867;52.480;6.056;2023-04-03T01:09:50;5.20;;;2.22;;
60014;SDS011;45867;52.480;6.056;2023-04-03T01:12:22;9.30;;;2.15;;
60014;SDS011;45867;52.480;6.056;2023-04-03T01:14:53;7.82;;;2.55;;
60014;SDS011;45867;52.480;6.056;2023-04-03T01:17:34;5.90;;;2.33;;
60014;SDS011;45867;52.480;6.056;2023-04-03T01:25:28;5.80;;;2.30;;
60014;SDS011;45867;52.480;6.056;2023-04-03T01:27:54;3.63;;;2.08;;
60014;SDS011;45867;52.480;6.056;2023-04-03T01:30:20;11.80;;;2.20;;
60014;SDS011;45867;52.480;6.056;2023-04-03T01:32:48;3.38;;;2.20;;
60014;SDS011;45867;52.480;6.056;2023-04-03T01:35:14;6.13;;;2.38;;
60014;SDS011;45867;52.480;6.056;2023-04-03T01:37:39;6.30;;;2.47;;
60014;SDS011;45867;52.480;6.056;2023-04-03T01:40:05;7.45;;;2.22;;
60014;SDS011;45867;52.480;6.056;2023-04-03T01:42:32;6.75;;;2.30;;
60014;SDS011;45867;52.480;6.056;2023-04-03T01:44:57;6.82;;;2.25;;
60014;SDS011;45867;52.480;6.056;2023-04-03T01:47:23;8.15;;;2.30;;
60014;SDS011;45867;52.480;6.056;2023-04-03T01:49:48;3.67;;;2.05;;
60014;SDS011;45867;52.480;6.056;2023-04-03T01:52:14;6.78;;;2.08;;
60014;SDS011;45867;52.480;6.056;2023-04-03T01:54:39;5.35;;;2.40;;
60014;SDS011;45867;52.480;6.056;2023-04-03T01:57:05;6.45;;;2.30;;
60014;SDS011;45867;52.480;6.056;2023-04-03T01:59:30;5.30;;;2.03;;
60014;SDS011;45867;52.480;6.056;2023-04-03T02:01:55;7.10;;;2.28;;
60014;SDS011;45867;52.480;6.056;2023-04-03T02:04:21;10.98;;;2.50;;
60014;SDS011;45867;52.480;6.056;2023-04-03T02:06:47;3.33;;;2.05;;
60014;SDS011;45867;52.480;6.056;2023-04-03T02:09:12;7.13;;;2.35;;
60014;SDS011;45867;52.480;6.056;2023-04-03T02:11:38;4.95;;;2.35;;
60014;SDS011;45867;52.480;6.056;2023-04-03T02:14:03;6.53;;;2.40;;
60014;SDS011;45867;52.480;6.056;2023-04-03T02:16:29;6.10;;;2.65;;
60014;SDS011;45867;52.480;6.056;2023-04-03T02:18:55;7.05;;;2.50;;
60014;SDS011;45867;52.480;6.056;2023-04-03T02:21:21;6.75;;;2.42;;
60014;SDS011;45867;52.480;6.056;2023-04-03T02:23:47;6.10;;;2.15;;
60014;SDS011;45867;52.480;6.056;2023-04-03T02:26:13;5.72;;;2.60;;
60014;SDS011;45867;52.480;6.056;2023-04-03T02:28:40;5.30;;;2.20;;
60014;SDS011;45867;52.480;6.056;2023-04-03T02:31:07;11.50;;;2.25;;
60014;SDS011;45867;52.480;6.056;2023-04-03T02:33:33;4.82;;;2.60;;
60014;SDS011;45867;52.480;6.056;2023-04-03T02:36:03;5.25;;;2.30;;
60014;SDS011;45867;52.480;6.056;2023-04-03T02:38:30;4.30;;;2.30;;
60014;SDS011;45867;52.480;6.056;2023-04-03T02:41:03;6.22;;;2.55;;
60014;SDS011;45867;52.480;6.056;2023-04-03T02:43:30;8.35;;;2.60;;
60014;SDS011;45867;52.480;6.056;2023-04-03T02:45:55;7.95;;;2.53;;
60014;SDS011;45867;52.480;6.056;2023-04-03T02:48:21;8.55;;;2.80;;
60014;SDS011;45867;52.480;6.056;2023-04-03T02:50:46;6.43;;;2.20;;
60014;SDS011;45867;52.480;6.056;2023-04-03T02:53:11;5.00;;;2.20;;
60014;SDS011;45867;52.480;6.056;2023-04-03T02:55:37;9.20;;;2.72;;
60014;SDS011;45867;52.480;6.056;2023-04-03T02:58:02;4.47;;;2.30;;
60014;SDS011;45867;52.480;6.056;2023-04-03T03:00:28;4.70;;;2.50;;
60014;SDS011;45867;52.480;6.056;2023-04-03T03:02:54;18.00;;;2.78;;
60014;SDS011;45867;52.480;6.056;2023-04-03T03:05:20;4.38;;;2.50;;
60014;SDS011;45867;52.480;6.056;2023-04-03T03:07:46;9.48;;;2.80;;
60014;SDS011;45867;52.480;6.056;2023-04-03T03:10:12;11.27;;;3.00;;
60014;SDS011;45867;52.480;6.056;2023-04-03T03:12:38;6.00;;;2.72;;
60014;SDS011;45867;52.480;6.056;2023-04-03T03:15:05;6.45;;;2.78;;
60014;SDS011;45867;52.480;6.056;2023-04-03T03:17:31;6.07;;;2.22;;
60014;SDS011;45867;52.480;6.056;2023-04-03T03:19:57;6.35;;;2.72;;
60014;SDS011;45867;52.480;6.056;2023-04-03T03:22:22;8.65;;;2.90;;
60014;SDS011;45867;52.480;6.056;2023-04-03T03:24:47;6.07;;;2.67;;
60014;SDS011;45867;52.480;6.056;2023-04-03T03:27:13;9.23;;;2.90;;
60014;SDS011;45867;52.480;6.056;2023-04-03T03:29:38;6.97;;;2.83;;
60014;SDS011;45867;52.480;6.056;2023-04-03T03:32:04;11.23;;;3.33;;
60014;SDS011;45867;52.480;6.056;2023-04-03T03:34:29;8.63;;;2.60;;
60014;SDS011;45867;52.480;6.056;2023-04-03T03:36:54;8.90;;;2.95;;
60014;SDS011;45867;52.480;6.056;2023-04-03T03:39:20;3.95;;;2.20;;
60014;SDS011;45867;52.480;6.056;2023-04-03T03:41:46;7.72;;;2.90;;
60014;SDS011;45867;52.480;6.056;2023-04-03T03:44:11;9.43;;;2.70;;
60014;SDS011;45867;52.480;6.056;2023-04-03T03:46:36;5.93;;;2.70;;
60014;SDS011;45867;52.480;6.056;2023-04-03T03:49:02;4.55;;;2.42;;
60014;SDS011;45867;52.480;6.056;2023-04-03T03:51:27;9.23;;;3.03;;
60014;SDS011;45867;52.480;6.056;2023-04-03T03:53:52;8.73;;;3.00;;
60014;SDS011;45867;52.480;6.056;2023-04-03T03:56:18;6.13;;;2.67;;
60014;SDS011;45867;52.480;6.056;2023-04-03T03:58:43;4.97;;;2.53;;
60014;SDS011;45867;52.480;6.056;2023-04-03T04:01:08;8.35;;;2.72;;
60014;SDS011;45867;52.480;6.056;2023-04-03T04:03:34;6.25;;;2.75;;
60014;SDS011;45867;52.480;6.056;2023-04-03T04:05:59;8.27;;;2.65;;
60014;SDS011;45867;52.480;6.056;2023-04-03T04:08:27;4.68;;;2.47;;
60014;SDS011;45867;52.480;6.056;2023-04-03T04:10:53;6.68;;;2.83;;
60014;SDS011;45867;52.480;6.056;2023-04-03T04:13:18;7.10;;;3.17;;
60014;SDS011;45867;52.480;6.056;2023-04-03T04:15:43;9.05;;;3.05;;
60014;SDS011;45867;52.480;6.056;2023-04-03T04:18:09;8.68;;;3.55;;
60014;SDS011;45867;52.480;6.056;2023-04-03T04:20:34;6.45;;;2.70;;
60014;SDS011;45867;52.480;6.056;2023-04-03T04:23:01;8.02;;;2.78;;
60014;SDS011;45867;52.480;6.056;2023-04-03T04:25:27;11.05;;;3.38;;
60014;SDS011;45867;52.480;6.056;2023-04-03T04:27:52;6.45;;;2.50;;
60014;SDS011;45867;52.480;6.056;2023-04-03T04:30:17;10.60;;;3.08;;
60014;SDS011;45867;52.480;6.056;2023-04-03T04:32:43;8.88;;;2.85;;
60014;SDS011;45867;52.480;6.056;2023-04-03T04:35:08;7.05;;;2.83;;
60014;SDS011;45867;52.480;6.056;2023-04-03T04:37:34;8.82;;;2.95;;
60014;SDS011;45867;52.480;6.056;2023-04-03T04:40:00;9.75;;;3.30;;
60014;SDS011;45867;52.480;6.056;2023-04-03T04:42:25;9.38;;;3.25;;
60014;SDS011;45867;52.480;6.056;2023-04-03T04:44:50;9.18;;;3.65;;
60014;SDS011;45867;52.480;6.056;2023-04-03T04:47:16;8.57;;;3.35;;
60014;SDS011;45867;52.480;6.056;2023-04-03T04:49:42;8.93;;;3.05;;
60014;SDS011;45867;52.480;6.056;2023-04-03T04:52:07;13.68;;;3.28;;
60014;SDS011;45867;52.480;6.056;2023-04-03T04:54:32;7.45;;;2.90;;
60014;SDS011;45867;52.480;6.056;2023-04-03T04:56:58;7.60;;;3.08;;
60014;SDS011;45867;52.480;6.056;2023-04-03T04:59:23;6.53;;;3.50;;
60014;SDS011;45867;52.480;6.056;2023-04-03T05:01:49;10.32;;;3.78;;
60014;SDS011;45867;52.480;6.056;2023-04-03T05:04:14;8.73;;;3.50;;
60014;SDS011;45867;52.480;6.056;2023-04-03T05:06:40;8.45;;;3.28;;
60014;SDS011;45867;52.480;6.056;2023-04-03T05:09:06;7.25;;;3.00;;
60014;SDS011;45867;52.480;6.056;2023-04-03T05:11:31;9.55;;;3.38;;
60014;SDS011;45867;52.480;6.056;2023-04-03T05:14:00;7.68;;;3.20;;
60014;SDS011;45867;52.480;6.056;2023-04-03T05:16:25;11.05;;;3.53;;
60014;SDS011;45867;52.480;6.056;2023-04-03T05:18:54;8.68;;;3.58;;
60014;SDS011;45867;52.480;6.056;2023-04-03T05:21:19;5.40;;;3.08;;
60014;SDS011;45867;52.480;6.056;2023-04-03T05:23:46;6.10;;;3.08;;
60014;SDS011;45867;52.480;6.056;2023-04-03T05:26:12;8.05;;;3.67;;
60014;SDS011;45867;52.480;6.056;2023-04-03T05:28:37;6.45;;;3.40;;
60014;SDS011;45867;52.480;6.056;2023-04-03T05:31:04;10.68;;;3.85;;
60014;SDS011;45867;52.480;6.056;2023-04-03T05:33:29;6.75;;;3.47;;
60014;SDS011;45867;52.480;6.056;2023-04-03T05:35:54;10.43;;;3.60;;
60014;SDS011;45867;52.480;6.056;2023-04-03T05:38:26;5.22;;;2.90;;
60014;SDS011;45867;52.480;6.056;2023-04-03T05:40:51;9.68;;;3.80;;
60014;SDS011;45867;52.480;6.056;2023-04-03T05:43:20;11.25;;;3.67;;
60014;SDS011;45867;52.480;6.056;2023-04-03T05:45:46;11.38;;;4.00;;
60014;SDS011;45867;52.480;6.056;2023-04-03T05:48:12;13.20;;;4.50;;
60014;SDS011;45867;52.480;6.056;2023-04-03T05:50:38;6.63;;;2.80;;
60014;SDS011;45867;52.480;6.056;2023-04-03T05:53:06;8.93;;;3.50;;
60014;SDS011;45867;52.480;6.056;2023-04-03T05:55:37;13.00;;;3.63;;
60014;SDS011;45867;52.480;6.056;2023-04-03T05:58:02;6.00;;;3.50;;
60014;SDS011;45867;52.480;6.056;2023-04-03T06:00:28;9.07;;;3.35;;
60014;SDS011;45867;52.480;6.056;2023-04-03T06:02:53;10.77;;;3.65;;
60014;SDS011;45867;52.480;6.056;2023-04-03T06:05:19;8.68;;;3.20;;
60014;SDS011;45867;52.480;6.056;2023-04-03T06:07:44;8.02;;;3.25;;
60014;SDS011;45867;52.480;6.056;2023-04-03T06:10:11;15.20;;;3.28;;
60014;SDS011;45867;52.480;6.056;2023-04-03T06:12:37;6.03;;;2.88;;
60014;SDS011;45867;52.480;6.056;2023-04-03T06:15:03;11.02;;;3.60;;
60014;SDS011;45867;52.480;6.056;2023-04-03T06:17:28;12.07;;;3.72;;
60014;SDS011;45867;52.480;6.056;2023-04-03T06:19:54;7.57;;;3.00;;
60014;SDS011;45867;52.480;6.056;2023-04-03T06:22:20;7.18;;;2.88;;
60014;SDS011;45867;52.480;6.056;2023-04-03T06:24:46;8.60;;;2.95;;
60014;SDS011;45867;52.480;6.056;2023-04-03T06:27:11;8.70;;;3.63;;
60014;SDS011;45867;52.480;6.056;2023-04-03T06:29:37;7.25;;;3.28;;
60014;SDS011;45867;52.480;6.056;2023-04-03T06:32:10;10.20;;;3.10;;
60014;SDS011;45867;52.480;6.056;2023-04-03T06:34:35;8.57;;;4.00;;
60014;SDS011;45867;52.480;6.056;2023-04-03T06:37:00;12.50;;;2.95;;
60014;SDS011;45867;52.480;6.056;2023-04-03T06:39:26;9.80;;;2.47;;
60014;SDS011;45867;52.480;6.056;2023-04-03T06:41:52;8.23;;;3.13;;
60014;SDS011;45867;52.480;6.056;2023-04-03T06:44:17;7.57;;;2.70;;
60014;SDS011;45867;52.480;6.056;2023-04-03T06:46:43;4.93;;;2.60;;
60014;SDS011;45867;52.480;6.056;2023-04-03T06:49:10;9.77;;;2.83;;
60014;SDS011;45867;52.480;6.056;2023-04-03T06:51:36;7.53;;;2.58;;
60014;SDS011;45867;52.480;6.056;2023-04-03T06:54:01;6.53;;;2.25;;
60014;SDS011;45867;52.480;6.056;2023-04-03T06:56:28;6.05;;;2.20;;
60014;SDS011;45867;52.480;6.056;2023-04-03T06:58:54;7.18;;;2.33;;
60014;SDS011;45867;52.480;6.056;2023-04-03T07:01:23;9.13;;;2.42;;
60014;SDS011;45867;52.480;6.056;2023-04-03T07:03:55;5.97;;;2.17;;
60014;SDS011;45867;52.480;6.056;2023-04-03T07:06:27;6.45;;;2.40;;
60014;SDS011;45867;52.480;6.056;2023-04-03T07:08:52;7.82;;;2.42;;
60014;SDS011;45867;52.480;6.056;2023-04-03T07:11:19;7.65;;;2.78;;
60014;SDS011;45867;52.480;6.056;2023-04-03T07:13:45;3.85;;;1.77;;
60014;SDS011;45867;52.480;6.056;2023-04-03T07:16:10;5.65;;;2.00;;
60014;SDS011;45867;52.480;6.056;2023-04-03T07:18:37;8.27;;;2.70;;
60014;SDS011;45867;52.480;6.056;2023-04-03T07:21:03;8.27;;;2.45;;
60014;SDS011;45867;52.480;6.056;2023-04-03T07:23:29;4.43;;;1.88;;
60014;SDS011;45867;52.480;6.056;2023-04-03T07:25:54;10.07;;;2.38;;
60014;SDS011;45867;52.480;6.056;2023-04-03T07:28:21;8.52;;;2.70;;
60014;SDS011;45867;52.480;6.056;2023-04-03T07:30:52;3.75;;;1.92;;
60014;SDS011;45867;52.480;6.056;2023-04-03T07:33:24;4.85;;;1.52;;
60014;SDS011;45867;52.480;6.056;2023-04-03T07:35:50;5.18;;;2.38;;
60014;SDS011;45867;52.480;6.056;2023-04-03T07:38:16;6.55;;;2.22;;
60014;SDS011;45867;52.480;6.056;2023-04-03T07:40:45;4.88;;;1.63;;
60014;SDS011;45867;52.480;6.056;2023-04-03T07:43:11;6.90;;;1.98;;
60014;SDS011;45867;52.480;6.056;2023-04-03T07:45:37;4.28;;;2.25;;
60014;SDS011;45867;52.480;6.056;2023-04-03T07:48:03;4.45;;;1.70;;
60014;SDS011;45867;52.480;6.056;2023-04-03T07:50:29;3.08;;;1.48;;
60014;SDS011;45867;52.480;6.056;2023-04-03T07:52:56;3.40;;;1.45;;
60014;SDS011;45867;52.480;6.056;2023-04-03T07:55:22;4.53;;;1.60;;
60014;SDS011;45867;52.480;6.056;2023-04-03T07:57:48;6.50;;;1.77;;
60014;SDS011;45867;52.480;6.056;2023-04-03T08:00:13;2.90;;;1.50;;
60014;SDS011;45867;52.480;6.056;2023-04-03T08:02:39;5.25;;;1.80;;
60014;SDS011;45867;52.480;6.056;2023-04-03T08:05:05;3.28;;;1.73;;
60014;SDS011;45867;52.480;6.056;2023-04-03T08:07:30;2.95;;;1.45;;
60014;SDS011;45867;52.480;6.056;2023-04-03T08:09:56;4.55;;;1.40;;
60014;SDS011;45867;52.480;6.056;2023-04-03T08:12:22;2.72;;;1.30;;
60014;SDS011;45867;52.480;6.056;2023-04-03T08:14:47;5.85;;;1.80;;
60014;SDS011;45867;52.480;6.056;2023-04-03T08:17:12;3.47;;;1.48;;
60014;SDS011;45867;52.480;6.056;2023-04-03T08:19:41;6.22;;;1.35;;
60014;SDS011;45867;52.480;6.056;2023-04-03T08:22:06;3.22;;;1.63;;
60014;SDS011;45867;52.480;6.056;2023-04-03T08:24:32;11.50;;;1.60;;
60014;SDS011;45867;52.480;6.056;2023-04-03T08:26:58;8.20;;;1.50;;
60014;SDS011;45867;52.480;6.056;2023-04-03T08:29:24;4.82;;;1.50;;
60014;SDS011;45867;52.480;6.056;2023-04-03T08:31:50;5.45;;;1.63;;
60014;SDS011;45867;52.480;6.056;2023-04-03T08:34:16;2.97;;;1.40;;
60014;SDS011;45867;52.480;6.056;2023-04-03T08:36:42;8.15;;;1.55;;
60014;SDS011;45867;52.480;6.056;2023-04-03T08:39:07;3.35;;;1.45;;
60014;SDS011;45867;52.480;6.056;2023-04-03T08:41:37;5.68;;;1.42;;
60014;SDS011;45867;52.480;6.056;2023-04-03T08:47:14;4.25;;;1.50;;
60014;SDS011;45867;52.480;6.056;2023-04-03T08:50:04;4.35;;;1.50;;
60014;SDS011;45867;52.480;6.056;2023-04-03T08:58:03;5.50;;;1.50;;
60014;SDS011;45867;52.480;6.056;2023-04-03T09:03:15;2.50;;;1.35;;
60014;SDS011;45867;52.480;6.056;2023-04-03T09:14:53;3.03;;;1.20;;
60014;SDS011;45867;52.480;6.056;2023-04-03T09:17:41;4.43;;;2.17;;
60014;SDS011;45867;52.480;6.056;2023-04-03T09:20:24;3.75;;;1.60;;
60014;SDS011;45867;52.480;6.056;2023-04-03T09:27:39;3.85;;;1.45;;
60014;SDS011;45867;52.480;6.056;2023-04-03T09:30:04;3.05;;;1.23;;
60014;SDS011;45867;52.480;6.056;2023-04-03T09:32:33;2.75;;;1.17;;
60014;SDS011;45867;52.480;6.056;2023-04-03T09:35:04;3.08;;;1.27;;
60014;SDS011;45867;52.480;6.056;2023-04-03T09:40:34;2.55;;;1.15;;
60014;SDS011;45867;52.480;6.056;2023-04-03T09:43:36;4.13;;;1.10;;
60014;SDS011;45867;52.480;6.056;2023-04-03T09:49:00;3.38;;;1.17;;
60014;SDS011;45867;52.480;6.056;2023-04-03T09:51:28;3.00;;;1.20;;
60014;SDS011;45867;52.480;6.056;2023-04-03T09:53:55;3.08;;;1.13;;
60014;SDS011;45867;52.480;6.056;2023-04-03T09:56:23;3.88;;;1.40;;
60014;SDS011;45867;52.480;6.056;2023-04-03T10:04:14;2.95;;;1.00;;
60014;SDS011;45867;52.480;6.056;2023-04-03T10:06:44;4.53;;;1.20;;
60014;SDS011;45867;52.480;6.056;2023-04-03T10:12:07;2.97;;;1.08;;
60014;SDS011;45867;52.480;6.056;2023-04-03T10:17:19;1.65;;;1.20;;
60014;SDS011;45867;52.480;6.056;2023-04-03T10:19:53;3.40;;;1.17;;
60014;SDS011;45867;52.480;6.056;2023-04-03T10:22:37;5.05;;;1.10;;
60014;SDS011;45867;52.480;6.056;2023-04-03T10:28:00;4.80;;;1.08;;
60014;SDS011;45867;52.480;6.056;2023-04-03T10:33:11;4.03;;;1.92;;
60014;SDS011;45867;52.480;6.056;2023-04-03T10:39:08;2.17;;;1.20;;
60014;SDS011;45867;52.480;6.056;2023-04-03T10:41:52;2.75;;;1.20;;
60014;SDS011;45867;52.480;6.056;2023-04-03T10:46:52;5.00;;;1.30;;
60014;SDS011;45867;52.480;6.056;2023-04-03T10:50:05;3.42;;;1.10;;
60014;SDS011;45867;52.480;6.056;2023-04-03T10:57:38;2.85;;;1.30;;
60014;SDS011;45867;52.480;6.056;2023-04-03T11:00:06;2.35;;;1.13;;
60014;SDS011;45867;52.480;6.056;2023-04-03T11:02:48;2.60;;;1.27;;
60014;SDS011;45867;52.480;6.056;2023-04-03T11:05:21;5.28;;;1.20;;
60014;SDS011;45867;52.480;6.056;2023-04-03T11:08:02;2.42;;;1.13;;
60014;SDS011;45867;52.480;6.056;2023-04-03T11:10:38;1.80;;;1.10;;
60014;SDS011;45867;52.480;6.056;2023-04-03T11:16:15;2.10;;;1.40;;
60014;SDS011;45867;52.480;6.056;2023-04-03T11:21:25;6.88;;;1.50;;
60014;SDS011;45867;52.480;6.056;2023-04-03T11:23:59;2.78;;;1.50;;
60014;SDS011;45867;52.480;6.056;2023-04-03T11:26:30;3.03;;;1.30;;
60014;SDS011;45867;52.480;6.056;2023-04-03T11:29:03;3.78;;;1.85;;
60014;SDS011;45867;52.480;6.056;2023-04-03T11:34:15;3.63;;;1.27;;
60014;SDS011;45867;52.480;6.056;2023-04-03T11:36:53;1.67;;;0.90;;
60014;SDS011;45867;52.480;6.056;2023-04-03T11:42:13;4.32;;;2.20;;
60014;SDS011;45867;52.480;6.056;2023-04-03T11:44:50;3.17;;;1.40;;
60014;SDS011;45867;52.480;6.056;2023-04-03T11:58:14;2.70;;;1.20;;
60014;SDS011;45867;52.480;6.056;2023-04-03T12:06:41;2.83;;;1.17;;
60014;SDS011;45867;52.480;6.056;2023-04-03T12:46:49;3.35;;;1.35;;
60014;SDS011;45867;52.480;6.056;2023-04-03T12:51:51;2.85;;;1.10;;
60014;SDS011;45867;52.480;6.056;2023-04-03T12:54:22;7.85;;;2.42;;
60014;SDS011;45867;52.480;6.056;2023-04-03T12:57:08;3.03;;;1.35;;
60014;SDS011;45867;52.480;6.056;2023-04-03T12:59:34;2.75;;;1.40;;
60014;SDS011;45867;52.480;6.056;2023-04-03T13:02:01;3.25;;;1.33;;
60014;SDS011;45867;52.480;6.056;2023-04-03T13:04:28;4.53;;;1.05;;
60014;SDS011;45867;52.480;6.056;2023-04-03T13:06:56;3.05;;;1.35;;
60014;SDS011;45867;52.480;6.056;2023-04-03T13:09:26;4.60;;;1.52;;
60014;SDS011;45867;52.480;6.056;2023-04-03T13:11:57;2.78;;;1.50;;
60014;SDS011;45867;52.480;6.056;2023-04-03T13:14:28;2.63;;;1.38;;
60014;SDS011;45867;52.480;6.056;2023-04-03T13:16:58;2.17;;;1.23;;
60014;SDS011;45867;52.480;6.056;2023-04-03T13:19:31;5.85;;;1.40;;
60014;SDS011;45867;52.480;6.056;2023-04-03T13:21:58;26.05;;;1.58;;
60014;SDS011;45867;52.480;6.056;2023-04-03T13:24:26;4.38;;;1.60;;
60014;SDS011;45867;52.480;6.056;2023-04-03T13:26:54;3.40;;;1.40;;
60014;SDS011;45867;52.480;6.056;2023-04-03T13:29:25;4.28;;;1.40;;
60014;SDS011;45867;52.480;6.056;2023-04-03T13:31:55;3.38;;;1.38;;
60014;SDS011;45867;52.480;6.056;2023-04-03T13:34:22;2.30;;;1.20;;
60014;SDS011;45867;52.480;6.056;2023-04-03T13:41:45;4.80;;;1.65;;
60014;SDS011;45867;52.480;6.056;2023-04-03T13:44:16;2.75;;;1.40;;
60014;SDS011;45867;52.480;6.056;2023-04-03T13:46:58;3.65;;;1.40;;
60014;SDS011;45867;52.480;6.056;2023-04-03T13:49:45;4.45;;;1.60;;
60014;SDS011;45867;52.480;6.056;2023-04-03T13:52:51;4.15;;;1.23;;
60014;SDS011;45867;52.480;6.056;2023-04-03T13:55:26;3.17;;;1.40;;
60014;SDS011;45867;52.480;6.056;2023-04-03T13:57:59;8.23;;;2.50;;
60014;SDS011;45867;52.480;6.056;2023-04-03T14:00:35;3.70;;;1.42;;
60014;SDS011;45867;52.480;6.056;2023-04-03T14:03:12;3.65;;;1.48;;
60014;SDS011;45867;52.480;6.056;2023-04-03T14:05:53;4.18;;;1.50;;
60014;SDS011;45867;52.480;6.056;2023-04-03T14:08:19;7.78;;;1.65;;
60014;SDS011;45867;52.480;6.056;2023-04-03T14:10:45;4.85;;;1.67;;
60014;SDS011;45867;52.480;6.056;2023-04-03T14:13:14;3.20;;;1.50;;
60014;SDS011;45867;52.480;6.056;2023-04-03T14:15:42;9.15;;;1.73;;
60014;SDS011;45867;52.480;6.056;2023-04-03T14:18:12;5.00;;;1.73;;
60014;SDS011;45867;52.480;6.056;2023-04-03T14:20:39;5.05;;;1.52;;
60014;SDS011;45867;52.480;6.056;2023-04-03T14:23:07;2.65;;;1.45;;
60014;SDS011;45867;52.480;6.056;2023-04-03T14:25:32;4.10;;;1.80;;
60014;SDS011;45867;52.480;6.056;2023-04-03T14:27:59;3.78;;;1.67;;
60014;SDS011;45867;52.480;6.056;2023-04-03T14:30:29;4.63;;;1.80;;
60014;SDS011;45867;52.480;6.056;2023-04-03T14:32:56;4.63;;;1.55;;
60014;SDS011;45867;52.480;6.056;2023-04-03T14:35:23;5.43;;;1.65;;
60014;SDS011;45867;52.480;6.056;2023-04-03T14:37:51;2.75;;;1.50;;
60014;SDS011;45867;52.480;6.056;2023-04-03T14:40:19;5.18;;;1.52;;
60014;SDS011;45867;52.480;6.056;2023-04-03T14:42:49;6.63;;;1.77;;
60014;SDS011;45867;52.480;6.056;2023-04-03T14:45:15;4.35;;;1.70;;
60014;SDS011;45867;52.480;6.056;2023-04-03T14:47:47;6.43;;;1.83;;
60014;SDS011;45867;52.480;6.056;2023-04-03T14:50:18;2.88;;;1.52;;
60014;SDS011;45867;52.480;6.056;2023-04-03T14:52:48;4.78;;;1.77;;
60014;SDS011;45867;52.480;6.056;2023-04-03T14:55:16;4.32;;;1.58;;
60014;SDS011;45867;52.480;6.056;2023-04-03T14:57:43;5.22;;;1.65;;
60014;SDS011;45867;52.480;6.056;2023-04-03T15:00:13;3.20;;;1.42;;
60014;SDS011;45867;52.480;6.056;2023-04-03T15:02:40;2.35;;;1.63;;
60014;SDS011;45867;52.480;6.056;2023-04-03T15:05:07;5.50;;;1.75;;
60014;SDS011;45867;52.480;6.056;2023-04-03T15:07:36;2.17;;;1.00;;
60014;SDS011;45867;52.480;6.056;2023-04-03T15:10:15;8.05;;;1.80;;
60014;SDS011;45867;52.480;6.056;2023-04-03T15:12:43;4.32;;;1.50;;
60014;SDS011;45867;52.480;6.056;2023-04-03T15:15:11;4.55;;;1.80;;
60014;SDS011;45867;52.480;6.056;2023-04-03T15:17:37;3.97;;;1.65;;
60014;SDS011;45867;52.480;6.056;2023-04-03T15:20:03;6.18;;;2.13;;
60014;SDS011;45867;52.480;6.056;2023-04-03T15:22:35;4.72;;;2.67;;
60014;SDS011;45867;52.480;6.056;2023-04-03T15:25:01;3.65;;;1.77;;
60014;SDS011;45867;52.480;6.056;2023-04-03T15:27:26;13.98;;;2.70;;
60014;SDS011;45867;52.480;6.056;2023-04-03T15:29:53;8.02;;;1.77;;
60014;SDS011;45867;52.480;6.056;2023-04-03T15:32:18;4.97;;;2.00;;
60014;SDS011;45867;52.480;6.056;2023-04-03T15:34:43;3.38;;;1.70;;
60014;SDS011;45867;52.480;6.056;2023-04-03T15:37:14;3.33;;;1.90;;
60014;SDS011;45867;52.480;6.056;2023-04-03T15:39:39;5.10;;;1.63;;
60014;SDS011;45867;52.480;6.056;2023-04-03T15:42:04;4.43;;;1.67;;
60014;SDS011;45867;52.480;6.056;2023-04-03T15:44:33;4.13;;;1.67;;
60014;SDS011;45867;52.480;6.056;2023-04-03T15:46:59;3.35;;;1.60;;
60014;SDS011;45867;52.480;6.056;2023-04-03T15:49:25;5.22;;;1.70;;
60014;SDS011;45867;52.480;6.056;2023-04-03T15:51:51;6.00;;;1.80;;
60014;SDS011;45867;52.480;6.056;2023-04-03T15:54:17;6.35;;;1.67;;
60014;SDS011;45867;52.480;6.056;2023-04-03T15:56:43;5.65;;;1.75;;
60014;SDS011;45867;52.480;6.056;2023-04-03T15:59:08;5.20;;;1.77;;
60014;SDS011;45867;52.480;6.056;2023-04-03T16:01:34;6.57;;;2.00;;
60014;SDS011;45867;52.480;6.056;2023-04-03T16:04:00;5.20;;;2.00;;
60014;SDS011;45867;52.480;6.056;2023-04-03T16:06:33;4.70;;;1.90;;
60014;SDS011;45867;52.480;6.056;2023-04-03T16:08:58;3.95;;;2.00;;
60014;SDS011;45867;52.480;6.056;2023-04-03T16:11:25;3.35;;;2.00;;
60014;SDS011;45867;52.480;6.056;2023-04-03T16:13:52;3.80;;;1.73;;
60014;SDS011;45867;52.480;6.056;2023-04-03T16:16:18;4.47;;;1.65;;
60014;SDS011;45867;52.480;6.056;2023-04-03T16:18:43;3.97;;;1.67;;
60014;SDS011;45867;52.480;6.056;2023-04-03T16:21:09;6.00;;;2.17;;
60014;SDS011;45867;52.480;6.056;2023-04-03T16:23:35;3.95;;;1.80;;
60014;SDS011;45867;52.480;6.056;2023-04-03T16:26:00;3.63;;;1.58;;
60014;SDS011;45867;52.480;6.056;2023-04-03T16:28:26;2.55;;;1.60;;
60014;SDS011;45867;52.480;6.056;2023-04-03T16:30:59;6.95;;;1.85;;
60014;SDS011;45867;52.480;6.056;2023-04-03T16:33:25;4.10;;;1.80;;
60014;SDS011;45867;52.480;6.056;2023-04-03T16:35:51;3.42;;;1.55;;
60014;SDS011;45867;52.480;6.056;2023-04-03T16:38:17;5.97;;;2.10;;
60014;SDS011;45867;52.480;6.056;2023-04-03T16:40:44;3.63;;;1.92;;
60014;SDS011;45867;52.480;6.056;2023-04-03T16:43:10;6.63;;;1.80;;
60014;SDS011;45867;52.480;6.056;2023-04-03T16:45:35;4.93;;;2.20;;
60014;SDS011;45867;52.480;6.056;2023-04-03T16:48:01;3.75;;;2.13;;
60014;SDS011;45867;52.480;6.056;2023-04-03T16:50:26;4.50;;;1.98;;
60014;SDS011;45867;52.480;6.056;2023-04-03T16:52:52;5.78;;;1.80;;
60014;SDS011;45867;52.480;6.056;2023-04-03T16:55:17;6.55;;;1.98;;
60014;SDS011;45867;52.480;6.056;2023-04-03T16:57:43;3.40;;;1.77;;
60014;SDS011;45867;52.480;6.056;2023-04-03T17:00:09;3.45;;;2.10;;
60014;SDS011;45867;52.480;6.056;2023-04-03T17:02:34;7.57;;;1.88;;
60014;SDS011;45867;52.480;6.056;2023-04-03T17:05:00;3.42;;;2.13;;
60014;SDS011;45867;52.480;6.056;2023-04-03T17:07:25;5.90;;;2.22;;
60014;SDS011;45867;52.480;6.056;2023-04-03T17:09:51;5.63;;;2.13;;